sensor_id;sensor_type;location;lat;lon;timestamp;temperature;humidity
57242;DHT22;43095;53.302;5.786;2024-02-26T00:03:23;3.00;99.90
57242;DHT22;43095;53.302;5.786;2024-02-26T00:06:37;3.00;99.90
57242;DHT22;43095;53.302;5.786;2024-02-26T00:09:28;3.00;99.90
57242;DHT22;43095;53.302;5.786;2024-02-26T00:13:35;3.10;99.90
57242;DHT22;43095;53.302;5.786;2024-02-26T00:16:59;3.10;99.90
57242;DHT22;43095;53.302;5.786;2024-02-26T00:19:26;3.10;99.90
57242;DHT22;43095;53.302;5.786;2024-02-26T00:21:54;3.10;99.90
57242;DHT22;43095;53.302;5.786;2024-02-26T00:24:22;3.10;99.90
57242;DHT22;43095;53.302;5.786;2024-02-26T00:26:50;3.10;99.90
57242;DHT22;43095;53.302;5.786;2024-02-26T00:29:21;3.20;99.90
57242;DHT22;43095;53.302;5.786;2024-02-26T00:31:52;3.30;99.90
57242;DHT22;43095;53.302;5.786;2024-02-26T00:34:19;3.20;99.90
57242;DHT22;43095;53.302;5.786;2024-02-26T00:36:47;3.30;99.90
57242;DHT22;43095;53.302;5.786;2024-02-26T00:39:15;3.30;99.90
57242;DHT22;43095;53.302;5.786;2024-02-26T00:41:43;3.30;99.90
57242;DHT22;43095;53.302;5.786;2024-02-26T00:44:10;3.30;99.90
57242;DHT22;43095;53.302;5.786;2024-02-26T00:46:38;3.30;99.90
57242;DHT22;43095;53.302;5.786;2024-02-26T00:49:06;3.30;99.90
57242;DHT22;43095;53.302;5.786;2024-02-26T06:07:15;3.70;99.20
57242;DHT22;43095;53.302;5.786;2024-02-26T06:09:42;3.70;99.50
57242;DHT22;43095;53.302;5.786;2024-02-26T06:12:10;3.70;99.70
57242;DHT22;43095;53.302;5.786;2024-02-26T06:14:37;3.70;99.70
57242;DHT22;43095;53.302;5.786;2024-02-26T06:17:04;3.70;99.40
57242;DHT22;43095;53.302;5.786;2024-02-26T06:19:31;3.70;99.20
57242;DHT22;43095;53.302;5.786;2024-02-26T06:21:59;3.70;98.90
57242;DHT22;43095;53.302;5.786;2024-02-26T06:24:26;3.70;98.60
57242;DHT22;43095;53.302;5.786;2024-02-26T06:26:53;3.70;98.10
57242;DHT22;43095;53.302;5.786;2024-02-26T06:29:20;3.70;97.60
57242;DHT22;43095;53.302;5.786;2024-02-26T06:31:47;3.70;97.30
57242;DHT22;43095;53.302;5.786;2024-02-26T06:34:17;3.60;97.20
57242;DHT22;43095;53.302;5.786;2024-02-26T06:36:45;3.60;97.00
57242;DHT22;43095;53.302;5.786;2024-02-26T06:39:13;3.60;96.70
57242;DHT22;43095;53.302;5.786;2024-02-26T06:41:42;3.60;96.40
57242;DHT22;43095;53.302;5.786;2024-02-26T06:44:09;3.60;96.30
57242;DHT22;43095;53.302;5.786;2024-02-26T06:46:36;3.50;96.20
57242;DHT22;43095;53.302;5.786;2024-02-26T06:49:04;3.50;96.40
57242;DHT22;43095;53.302;5.786;2024-02-26T06:51:31;3.50;96.70
57242;DHT22;43095;53.302;5.786;2024-02-26T06:54:01;3.50;96.90
57242;DHT22;43095;53.302;5.786;2024-02-26T06:56:29;3.50;97.20
57242;DHT22;43095;53.302;5.786;2024-02-26T06:58:56;3.50;97.40
57242;DHT22;43095;53.302;5.786;2024-02-26T07:01:23;3.50;97.50
57242;DHT22;43095;53.302;5.786;2024-02-26T07:03:50;3.60;97.50
57242;DHT22;43095;53.302;5.786;2024-02-26T07:06:17;3.60;97.70
57242;DHT22;43095;53.302;5.786;2024-02-26T07:08:45;3.60;97.80
57242;DHT22;43095;53.302;5.786;2024-02-26T07:11:12;3.60;97.90
57242;DHT22;43095;53.302;5.786;2024-02-26T07:13:39;3.60;97.60
57242;DHT22;43095;53.302;5.786;2024-02-26T07:16:09;3.60;97.40
57242;DHT22;43095;53.302;5.786;2024-02-26T07:18:39;3.60;97.20
57242;DHT22;43095;53.302;5.786;2024-02-26T07:21:06;3.60;97.10
57242;DHT22;43095;53.302;5.786;2024-02-26T07:23:34;3.60;97.20
57242;DHT22;43095;53.302;5.786;2024-02-26T07:26:02;3.70;97.10
57242;DHT22;43095;53.302;5.786;2024-02-26T07:28:29;3.70;97.10
57242;DHT22;43095;53.302;5.786;2024-02-26T07:30:56;3.70;96.80
57242;DHT22;43095;53.302;5.786;2024-02-26T07:33:23;3.70;96.80
57242;DHT22;43095;53.302;5.786;2024-02-26T07:35:51;3.70;96.80
57242;DHT22;43095;53.302;5.786;2024-02-26T07:38:20;3.70;96.80
57242;DHT22;43095;53.302;5.786;2024-02-26T07:41:03;3.70;96.70
57242;DHT22;43095;53.302;5.786;2024-02-26T07:43:30;3.70;97.00
57242;DHT22;43095;53.302;5.786;2024-02-26T07:45:57;3.70;97.20
57242;DHT22;43095;53.302;5.786;2024-02-26T07:48:25;3.80;97.40
57242;DHT22;43095;53.302;5.786;2024-02-26T07:50:52;3.70;97.60
57242;DHT22;43095;53.302;5.786;2024-02-26T07:53:19;3.80;97.70
57242;DHT22;43095;53.302;5.786;2024-02-26T07:55:47;3.90;97.60
57242;DHT22;43095;53.302;5.786;2024-02-26T07:58:14;3.90;97.50
57242;DHT22;43095;53.302;5.786;2024-02-26T08:00:41;3.90;97.50
57242;DHT22;43095;53.302;5.786;2024-02-26T08:03:08;3.90;97.40
57242;DHT22;43095;53.302;5.786;2024-02-26T08:05:36;4.00;97.10
57242;DHT22;43095;53.302;5.786;2024-02-26T08:08:07;4.00;97.20
57242;DHT22;43095;53.302;5.786;2024-02-26T08:10:34;4.00;96.90
57242;DHT22;43095;53.302;5.786;2024-02-26T08:13:02;4.10;96.80
57242;DHT22;43095;53.302;5.786;2024-02-26T08:15:33;4.10;96.70
57242;DHT22;43095;53.302;5.786;2024-02-26T08:18:02;4.20;96.50
57242;DHT22;43095;53.302;5.786;2024-02-26T08:20:31;4.20;96.00
57242;DHT22;43095;53.302;5.786;2024-02-26T08:22:59;4.20;95.60
57242;DHT22;43095;53.302;5.786;2024-02-26T08:25:26;4.30;95.60
57242;DHT22;43095;53.302;5.786;2024-02-26T08:27:57;4.30;95.80
57242;DHT22;43095;53.302;5.786;2024-02-26T08:30:24;4.30;96.20
57242;DHT22;43095;53.302;5.786;2024-02-26T08:32:53;4.40;96.40
57242;DHT22;43095;53.302;5.786;2024-02-26T08:35:21;4.40;96.50
57242;DHT22;43095;53.302;5.786;2024-02-26T08:37:48;4.40;96.60
57242;DHT22;43095;53.302;5.786;2024-02-26T08:40:16;4.40;96.80
57242;DHT22;43095;53.302;5.786;2024-02-26T08:42:43;4.50;97.10
57242;DHT22;43095;53.302;5.786;2024-02-26T08:45:11;4.50;97.40
57242;DHT22;43095;53.302;5.786;2024-02-26T08:47:39;4.50;97.50
57242;DHT22;43095;53.302;5.786;2024-02-26T08:50:08;4.50;96.90
57242;DHT22;43095;53.302;5.786;2024-02-26T08:52:37;4.50;96.20
57242;DHT22;43095;53.302;5.786;2024-02-26T08:55:05;4.50;96.60
57242;DHT22;43095;53.302;5.786;2024-02-26T08:57:33;4.60;96.60
57242;DHT22;43095;53.302;5.786;2024-02-26T09:00:01;4.70;96.60
57242;DHT22;43095;53.302;5.786;2024-02-26T09:02:30;4.70;96.50
57242;DHT22;43095;53.302;5.786;2024-02-26T09:04:57;4.70;96.30
57242;DHT22;43095;53.302;5.786;2024-02-26T09:07:25;4.70;96.00
57242;DHT22;43095;53.302;5.786;2024-02-26T09:09:54;4.70;95.20
57242;DHT22;43095;53.302;5.786;2024-02-26T09:12:21;4.70;94.90
57242;DHT22;43095;53.302;5.786;2024-02-26T09:14:49;4.70;94.20
57242;DHT22;43095;53.302;5.786;2024-02-26T09:17:16;4.80;94.40
57242;DHT22;43095;53.302;5.786;2024-02-26T09:19:44;4.90;94.30
57242;DHT22;43095;53.302;5.786;2024-02-26T09:22:12;4.90;94.60
57242;DHT22;43095;53.302;5.786;2024-02-26T09:24:43;4.90;95.20
57242;DHT22;43095;53.302;5.786;2024-02-26T09:27:11;5.00;95.20
57242;DHT22;43095;53.302;5.786;2024-02-26T09:29:38;5.00;94.20
57242;DHT22;43095;53.302;5.786;2024-02-26T09:32:06;5.00;94.00
57242;DHT22;43095;53.302;5.786;2024-02-26T09:34:33;5.00;93.10
57242;DHT22;43095;53.302;5.786;2024-02-26T09:37:01;5.00;92.40
57242;DHT22;43095;53.302;5.786;2024-02-26T09:39:42;5.10;92.40
57242;DHT22;43095;53.302;5.786;2024-02-26T09:42:11;5.10;92.30
57242;DHT22;43095;53.302;5.786;2024-02-26T09:44:40;5.20;92.30
57242;DHT22;43095;53.302;5.786;2024-02-26T09:47:11;5.30;92.60
57242;DHT22;43095;53.302;5.786;2024-02-26T09:49:44;5.30;92.50
57242;DHT22;43095;53.302;5.786;2024-02-26T09:52:15;5.30;92.80
57242;DHT22;43095;53.302;5.786;2024-02-26T09:54:47;5.30;92.40
57242;DHT22;43095;53.302;5.786;2024-02-26T09:57:15;5.40;91.80
57242;DHT22;43095;53.302;5.786;2024-02-26T09:59:45;5.40;91.20
57242;DHT22;43095;53.302;5.786;2024-02-26T10:02:15;5.50;91.00
57242;DHT22;43095;53.302;5.786;2024-02-26T10:04:43;5.50;89.90
57242;DHT22;43095;53.302;5.786;2024-02-26T10:07:16;5.50;88.20
57242;DHT22;43095;53.302;5.786;2024-02-26T10:09:44;5.50;88.30
57242;DHT22;43095;53.302;5.786;2024-02-26T10:12:12;5.50;88.90
57242;DHT22;43095;53.302;5.786;2024-02-26T10:14:40;5.50;89.20
57242;DHT22;43095;53.302;5.786;2024-02-26T10:17:07;5.50;89.00
57242;DHT22;43095;53.302;5.786;2024-02-26T10:19:36;5.40;88.80
57242;DHT22;43095;53.302;5.786;2024-02-26T10:22:05;5.40;88.80
57242;DHT22;43095;53.302;5.786;2024-02-26T10:24:33;5.40;89.50
57242;DHT22;43095;53.302;5.786;2024-02-26T10:27:02;5.50;89.60
57242;DHT22;43095;53.302;5.786;2024-02-26T10:29:31;5.50;89.90
57242;DHT22;43095;53.302;5.786;2024-02-26T10:31:59;5.50;90.00
57242;DHT22;43095;53.302;5.786;2024-02-26T10:34:28;5.50;90.80
57242;DHT22;43095;53.302;5.786;2024-02-26T10:36:56;5.60;91.00
57242;DHT22;43095;53.302;5.786;2024-02-26T10:39:23;5.60;90.70
57242;DHT22;43095;53.302;5.786;2024-02-26T10:41:51;5.60;90.60
57242;DHT22;43095;53.302;5.786;2024-02-26T10:44:18;5.60;91.40
57242;DHT22;43095;53.302;5.786;2024-02-26T10:46:47;5.60;92.00
57242;DHT22;43095;53.302;5.786;2024-02-26T10:49:17;5.60;92.20
57242;DHT22;43095;53.302;5.786;2024-02-26T10:51:54;5.70;92.20
57242;DHT22;43095;53.302;5.786;2024-02-26T10:54:26;5.70;91.80
57242;DHT22;43095;53.302;5.786;2024-02-26T10:56:59;5.70;91.60
57242;DHT22;43095;53.302;5.786;2024-02-26T10:59:28;5.70;91.50
57242;DHT22;43095;53.302;5.786;2024-02-26T11:01:57;5.70;91.50
57242;DHT22;43095;53.302;5.786;2024-02-26T11:04:25;5.70;91.80
57242;DHT22;43095;53.302;5.786;2024-02-26T11:06:57;5.70;92.10
57242;DHT22;43095;53.302;5.786;2024-02-26T11:09:26;5.70;91.90
57242;DHT22;43095;53.302;5.786;2024-02-26T11:11:54;5.70;91.40
57242;DHT22;43095;53.302;5.786;2024-02-26T11:14:24;5.70;91.50
57242;DHT22;43095;53.302;5.786;2024-02-26T11:16:54;5.80;91.50
57242;DHT22;43095;53.302;5.786;2024-02-26T11:19:24;5.70;91.10
57242;DHT22;43095;53.302;5.786;2024-02-26T11:21:52;5.80;91.30
57242;DHT22;43095;53.302;5.786;2024-02-26T11:24:20;5.80;91.00
57242;DHT22;43095;53.302;5.786;2024-02-26T11:26:51;5.80;90.50
57242;DHT22;43095;53.302;5.786;2024-02-26T11:29:34;5.80;90.20
57242;DHT22;43095;53.302;5.786;2024-02-26T11:32:06;5.80;90.60
57242;DHT22;43095;53.302;5.786;2024-02-26T11:34:33;5.80;90.80
57242;DHT22;43095;53.302;5.786;2024-02-26T11:37:14;5.80;90.90
57242;DHT22;43095;53.302;5.786;2024-02-26T11:39:43;5.80;91.10
57242;DHT22;43095;53.302;5.786;2024-02-26T11:42:16;5.80;91.20
57242;DHT22;43095;53.302;5.786;2024-02-26T11:44:44;5.80;91.60
57242;DHT22;43095;53.302;5.786;2024-02-26T11:47:19;5.80;91.30
57242;DHT22;43095;53.302;5.786;2024-02-26T11:49:50;5.80;90.90
57242;DHT22;43095;53.302;5.786;2024-02-26T11:52:17;5.80;90.30
57242;DHT22;43095;53.302;5.786;2024-02-26T11:54:55;5.80;90.50
57242;DHT22;43095;53.302;5.786;2024-02-26T11:57:39;5.70;91.00
57242;DHT22;43095;53.302;5.786;2024-02-26T12:02:49;5.70;90.60
57242;DHT22;43095;53.302;5.786;2024-02-26T12:05:32;5.80;91.00
57242;DHT22;43095;53.302;5.786;2024-02-26T12:10:39;5.70;88.90
57242;DHT22;43095;53.302;5.786;2024-02-26T12:13:10;5.80;89.00
57242;DHT22;43095;53.302;5.786;2024-02-26T12:15:55;5.70;88.80
57242;DHT22;43095;53.302;5.786;2024-02-26T12:18:24;5.70;88.40
57242;DHT22;43095;53.302;5.786;2024-02-26T12:21:03;5.70;89.40
57242;DHT22;43095;53.302;5.786;2024-02-26T12:23:31;5.70;89.90
57242;DHT22;43095;53.302;5.786;2024-02-26T12:26:00;5.70;90.20
57242;DHT22;43095;53.302;5.786;2024-02-26T12:28:32;5.60;89.90
57242;DHT22;43095;53.302;5.786;2024-02-26T12:30:59;5.60;89.20
57242;DHT22;43095;53.302;5.786;2024-02-26T12:33:28;5.60;90.00
57242;DHT22;43095;53.302;5.786;2024-02-26T12:35:58;5.60;90.00
57242;DHT22;43095;53.302;5.786;2024-02-26T12:38:26;5.50;90.70
57242;DHT22;43095;53.302;5.786;2024-02-26T12:40:54;5.50;90.90
57242;DHT22;43095;53.302;5.786;2024-02-26T12:43:22;5.50;91.20
57242;DHT22;43095;53.302;5.786;2024-02-26T12:45:49;5.50;90.20
57242;DHT22;43095;53.302;5.786;2024-02-26T12:48:17;5.40;89.80
57242;DHT22;43095;53.302;5.786;2024-02-26T12:50:45;5.40;90.60
57242;DHT22;43095;53.302;5.786;2024-02-26T12:53:14;5.40;90.90
57242;DHT22;43095;53.302;5.786;2024-02-26T12:55:42;5.40;91.20
57242;DHT22;43095;53.302;5.786;2024-02-26T12:58:11;5.40;91.10
57242;DHT22;43095;53.302;5.786;2024-02-26T13:00:39;5.30;91.00
57242;DHT22;43095;53.302;5.786;2024-02-26T13:03:09;5.30;91.20
57242;DHT22;43095;53.302;5.786;2024-02-26T13:05:36;5.30;91.20
57242;DHT22;43095;53.302;5.786;2024-02-26T13:08:04;5.30;91.40
57242;DHT22;43095;53.302;5.786;2024-02-26T13:10:35;5.30;90.60
57242;DHT22;43095;53.302;5.786;2024-02-26T13:13:03;5.30;90.50
57242;DHT22;43095;53.302;5.786;2024-02-26T13:15:31;5.30;90.90
57242;DHT22;43095;53.302;5.786;2024-02-26T13:18:13;5.30;90.50
57242;DHT22;43095;53.302;5.786;2024-02-26T13:20:42;5.20;89.40
57242;DHT22;43095;53.302;5.786;2024-02-26T13:23:13;5.10;89.10
57242;DHT22;43095;53.302;5.786;2024-02-26T13:25:40;5.10;90.00
57242;DHT22;43095;53.302;5.786;2024-02-26T13:28:15;5.10;90.10
57242;DHT22;43095;53.302;5.786;2024-02-26T13:30:54;5.10;90.60
57242;DHT22;43095;53.302;5.786;2024-02-26T13:33:26;5.10;90.20
57242;DHT22;43095;53.302;5.786;2024-02-26T13:35:56;5.00;89.60
57242;DHT22;43095;53.302;5.786;2024-02-26T13:38:24;5.00;90.10
57242;DHT22;43095;53.302;5.786;2024-02-26T13:40:52;5.00;90.40
57242;DHT22;43095;53.302;5.786;2024-02-26T13:43:20;5.00;89.20
57242;DHT22;43095;53.302;5.786;2024-02-26T13:45:47;5.00;89.30
57242;DHT22;43095;53.302;5.786;2024-02-26T13:48:15;5.00;89.80
57242;DHT22;43095;53.302;5.786;2024-02-26T13:50:43;5.00;90.00
57242;DHT22;43095;53.302;5.786;2024-02-26T13:53:12;5.00;88.60
57242;DHT22;43095;53.302;5.786;2024-02-26T13:55:41;5.00;88.70
57242;DHT22;43095;53.302;5.786;2024-02-26T13:58:12;5.00;88.50
57242;DHT22;43095;53.302;5.786;2024-02-26T14:00:42;5.00;88.80
57242;DHT22;43095;53.302;5.786;2024-02-26T14:03:11;5.10;87.90
57242;DHT22;43095;53.302;5.786;2024-02-26T14:05:38;5.10;87.80
57242;DHT22;43095;53.302;5.786;2024-02-26T14:08:06;5.10;88.10
57242;DHT22;43095;53.302;5.786;2024-02-26T14:10:33;5.20;87.90
57242;DHT22;43095;53.302;5.786;2024-02-26T14:13:01;5.20;87.90
57242;DHT22;43095;53.302;5.786;2024-02-26T14:15:28;5.30;88.20
57242;DHT22;43095;53.302;5.786;2024-02-26T14:17:56;5.30;87.10
57242;DHT22;43095;53.302;5.786;2024-02-26T14:20:25;5.20;86.60
57242;DHT22;43095;53.302;5.786;2024-02-26T14:22:52;5.30;87.40
57242;DHT22;43095;53.302;5.786;2024-02-26T14:25:21;5.30;87.70
57242;DHT22;43095;53.302;5.786;2024-02-26T14:27:49;5.30;87.40
57242;DHT22;43095;53.302;5.786;2024-02-26T14:30:16;5.30;88.00
57242;DHT22;43095;53.302;5.786;2024-02-26T14:32:44;5.30;88.40
57242;DHT22;43095;53.302;5.786;2024-02-26T14:35:11;5.30;88.80
57242;DHT22;43095;53.302;5.786;2024-02-26T14:37:44;5.30;89.30
57242;DHT22;43095;53.302;5.786;2024-02-26T14:40:15;5.30;89.60
57242;DHT22;43095;53.302;5.786;2024-02-26T14:42:43;5.30;88.90
57242;DHT22;43095;53.302;5.786;2024-02-26T14:45:10;5.30;88.00
57242;DHT22;43095;53.302;5.786;2024-02-26T14:47:39;5.30;87.50
57242;DHT22;43095;53.302;5.786;2024-02-26T14:50:07;5.30;87.10
57242;DHT22;43095;53.302;5.786;2024-02-26T14:52:34;5.30;87.60
57242;DHT22;43095;53.302;5.786;2024-02-26T14:55:02;5.40;88.00
57242;DHT22;43095;53.302;5.786;2024-02-26T14:57:30;5.30;86.50
57242;DHT22;43095;53.302;5.786;2024-02-26T14:59:57;5.30;87.20
57242;DHT22;43095;53.302;5.786;2024-02-26T15:02:25;5.40;87.50
57242;DHT22;43095;53.302;5.786;2024-02-26T15:04:52;5.40;87.70
57242;DHT22;43095;53.302;5.786;2024-02-26T15:07:20;5.40;87.60
57242;DHT22;43095;53.302;5.786;2024-02-26T15:09:48;5.40;87.60
57242;DHT22;43095;53.302;5.786;2024-02-26T15:12:15;5.40;87.80
57242;DHT22;43095;53.302;5.786;2024-02-26T15:14:45;5.40;88.00
57242;DHT22;43095;53.302;5.786;2024-02-26T15:17:12;5.40;88.30
57242;DHT22;43095;53.302;5.786;2024-02-26T15:19:40;5.50;88.30
57242;DHT22;43095;53.302;5.786;2024-02-26T15:22:08;5.40;86.30
57242;DHT22;43095;53.302;5.786;2024-02-26T15:24:35;5.30;85.50
57242;DHT22;43095;53.302;5.786;2024-02-26T15:27:04;5.30;85.60
57242;DHT22;43095;53.302;5.786;2024-02-26T15:29:32;5.30;85.40
57242;DHT22;43095;53.302;5.786;2024-02-26T15:31:59;5.30;84.90
57242;DHT22;43095;53.302;5.786;2024-02-26T15:34:26;5.30;85.30
57242;DHT22;43095;53.302;5.786;2024-02-26T15:36:54;5.30;85.50
57242;DHT22;43095;53.302;5.786;2024-02-26T15:39:21;5.30;86.30
57242;DHT22;43095;53.302;5.786;2024-02-26T15:41:48;5.30;86.10
57242;DHT22;43095;53.302;5.786;2024-02-26T15:44:16;5.30;85.60
57242;DHT22;43095;53.302;5.786;2024-02-26T15:46:43;5.30;86.40
57242;DHT22;43095;53.302;5.786;2024-02-26T15:49:10;5.30;86.90
57242;DHT22;43095;53.302;5.786;2024-02-26T15:51:43;5.30;87.20
57242;DHT22;43095;53.302;5.786;2024-02-26T15:54:10;5.30;86.90
57242;DHT22;43095;53.302;5.786;2024-02-26T15:56:38;5.30;86.80
57242;DHT22;43095;53.302;5.786;2024-02-26T15:59:07;5.30;86.90
57242;DHT22;43095;53.302;5.786;2024-02-26T16:01:35;5.30;86.80
57242;DHT22;43095;53.302;5.786;2024-02-26T16:04:02;5.30;86.20
57242;DHT22;43095;53.302;5.786;2024-02-26T16:06:51;5.20;86.00
57242;DHT22;43095;53.302;5.786;2024-02-26T16:09:21;5.20;86.30
57242;DHT22;43095;53.302;5.786;2024-02-26T16:11:50;5.20;86.80
57242;DHT22;43095;53.302;5.786;2024-02-26T16:17:17;5.20;87.20
57242;DHT22;43095;53.302;5.786;2024-02-26T16:19:49;5.10;86.90
57242;DHT22;43095;53.302;5.786;2024-02-26T16:22:18;5.10;86.40
57242;DHT22;43095;53.302;5.786;2024-02-26T16:24:45;5.10;86.30
57242;DHT22;43095;53.302;5.786;2024-02-26T16:27:13;5.10;86.40
57242;DHT22;43095;53.302;5.786;2024-02-26T16:29:41;5.00;86.60
57242;DHT22;43095;53.302;5.786;2024-02-26T16:32:08;5.00;86.30
57242;DHT22;43095;53.302;5.786;2024-02-26T16:34:35;5.00;86.10
57242;DHT22;43095;53.302;5.786;2024-02-26T16:37:08;5.00;86.10
57242;DHT22;43095;53.302;5.786;2024-02-26T16:39:37;5.00;86.20
57242;DHT22;43095;53.302;5.786;2024-02-26T16:42:06;4.90;86.80
57242;DHT22;43095;53.302;5.786;2024-02-26T16:44:35;4.90;86.70
57242;DHT22;43095;53.302;5.786;2024-02-26T16:47:04;4.90;86.70
57242;DHT22;43095;53.302;5.786;2024-02-26T16:49:33;4.90;86.70
57242;DHT22;43095;53.302;5.786;2024-02-26T16:52:02;4.90;86.80
57242;DHT22;43095;53.302;5.786;2024-02-26T16:54:29;4.90;86.50
57242;DHT22;43095;53.302;5.786;2024-02-26T16:56:58;4.90;86.40
57242;DHT22;43095;53.302;5.786;2024-02-26T16:59:26;4.90;86.70
57242;DHT22;43095;53.302;5.786;2024-02-26T17:01:55;4.80;87.00
57242;DHT22;43095;53.302;5.786;2024-02-26T17:04:23;4.70;87.50
57242;DHT22;43095;53.302;5.786;2024-02-26T17:06:51;4.80;87.90
57242;DHT22;43095;53.302;5.786;2024-02-26T17:09:21;4.80;88.30
57242;DHT22;43095;53.302;5.786;2024-02-26T17:11:49;4.80;88.50
57242;DHT22;43095;53.302;5.786;2024-02-26T17:14:20;4.70;88.10
57242;DHT22;43095;53.302;5.786;2024-02-26T17:16:49;4.80;88.00
57242;DHT22;43095;53.302;5.786;2024-02-26T17:19:17;4.80;87.30
57242;DHT22;43095;53.302;5.786;2024-02-26T17:21:45;4.80;87.30
57242;DHT22;43095;53.302;5.786;2024-02-26T17:24:15;4.80;86.80
57242;DHT22;43095;53.302;5.786;2024-02-26T17:26:42;4.80;86.50
57242;DHT22;43095;53.302;5.786;2024-02-26T17:29:10;4.80;86.50
57242;DHT22;43095;53.302;5.786;2024-02-26T17:31:37;4.80;86.70
57242;DHT22;43095;53.302;5.786;2024-02-26T17:34:09;4.80;86.60
57242;DHT22;43095;53.302;5.786;2024-02-26T17:36:38;4.80;86.60
57242;DHT22;43095;53.302;5.786;2024-02-26T17:39:06;4.80;86.20
57242;DHT22;43095;53.302;5.786;2024-02-26T17:41:33;4.80;85.80
57242;DHT22;43095;53.302;5.786;2024-02-26T17:44:01;4.80;85.30
57242;DHT22;43095;53.302;5.786;2024-02-26T17:46:31;4.80;85.00
57242;DHT22;43095;53.302;5.786;2024-02-26T17:49:06;4.80;85.00
57242;DHT22;43095;53.302;5.786;2024-02-26T17:51:34;4.80;85.00
57242;DHT22;43095;53.302;5.786;2024-02-26T17:54:02;4.80;85.30
57242;DHT22;43095;53.302;5.786;2024-02-26T17:56:29;4.70;85.20
57242;DHT22;43095;53.302;5.786;2024-02-26T17:58:56;4.70;85.20
57242;DHT22;43095;53.302;5.786;2024-02-26T18:01:23;4.70;85.60
57242;DHT22;43095;53.302;5.786;2024-02-26T18:03:51;4.70;85.80
57242;DHT22;43095;53.302;5.786;2024-02-26T18:06:21;4.70;86.10
57242;DHT22;43095;53.302;5.786;2024-02-26T18:08:53;4.70;86.70
57242;DHT22;43095;53.302;5.786;2024-02-26T18:11:21;4.70;87.60
57242;DHT22;43095;53.302;5.786;2024-02-26T18:13:48;4.70;87.90
57242;DHT22;43095;53.302;5.786;2024-02-26T18:16:15;4.70;88.00
57242;DHT22;43095;53.302;5.786;2024-02-26T18:18:43;4.70;88.20
57242;DHT22;43095;53.302;5.786;2024-02-26T18:21:14;4.70;88.00
57242;DHT22;43095;53.302;5.786;2024-02-26T18:23:47;4.70;87.30
57242;DHT22;43095;53.302;5.786;2024-02-26T18:26:18;4.70;87.00
57242;DHT22;43095;53.302;5.786;2024-02-26T18:28:49;4.70;87.10
57242;DHT22;43095;53.302;5.786;2024-02-26T18:31:18;4.70;86.70
57242;DHT22;43095;53.302;5.786;2024-02-26T18:33:46;4.80;86.40
57242;DHT22;43095;53.302;5.786;2024-02-26T18:36:13;4.80;85.80
57242;DHT22;43095;53.302;5.786;2024-02-26T18:38:44;4.90;85.80
57242;DHT22;43095;53.302;5.786;2024-02-26T18:41:21;4.90;85.90
57242;DHT22;43095;53.302;5.786;2024-02-26T18:43:52;5.00;85.80
57242;DHT22;43095;53.302;5.786;2024-02-26T18:46:19;5.00;85.70
57242;DHT22;43095;53.302;5.786;2024-02-26T18:48:47;5.00;85.50
57242;DHT22;43095;53.302;5.786;2024-02-26T18:51:15;5.00;85.90
57242;DHT22;43095;53.302;5.786;2024-02-26T18:53:43;5.00;86.50
57242;DHT22;43095;53.302;5.786;2024-02-26T18:56:11;5.00;86.90
57242;DHT22;43095;53.302;5.786;2024-02-26T18:58:41;5.00;86.80
57242;DHT22;43095;53.302;5.786;2024-02-26T19:01:09;5.00;86.70
57242;DHT22;43095;53.302;5.786;2024-02-26T19:03:37;5.00;86.10
57242;DHT22;43095;53.302;5.786;2024-02-26T19:06:08;5.00;85.60
57242;DHT22;43095;53.302;5.786;2024-02-26T19:08:36;5.00;85.40
57242;DHT22;43095;53.302;5.786;2024-02-26T19:11:07;5.00;84.30
57242;DHT22;43095;53.302;5.786;2024-02-26T19:13:37;5.00;84.30
57242;DHT22;43095;53.302;5.786;2024-02-26T19:16:12;5.00;84.00
57242;DHT22;43095;53.302;5.786;2024-02-26T19:18:43;5.00;84.00
57242;DHT22;43095;53.302;5.786;2024-02-26T19:21:12;5.00;83.70
57242;DHT22;43095;53.302;5.786;2024-02-26T19:23:40;4.90;84.10
57242;DHT22;43095;53.302;5.786;2024-02-26T19:26:07;4.90;84.30
57242;DHT22;43095;53.302;5.786;2024-02-26T19:28:35;4.90;84.60
57242;DHT22;43095;53.302;5.786;2024-02-26T19:31:02;4.90;84.20
57242;DHT22;43095;53.302;5.786;2024-02-26T19:33:31;4.90;84.00
57242;DHT22;43095;53.302;5.786;2024-02-26T19:35:58;5.00;83.90
57242;DHT22;43095;53.302;5.786;2024-02-26T19:38:25;5.00;84.10
57242;DHT22;43095;53.302;5.786;2024-02-26T19:40:53;5.00;84.30
57242;DHT22;43095;53.302;5.786;2024-02-26T19:43:20;5.00;84.70
57242;DHT22;43095;53.302;5.786;2024-02-26T19:45:47;5.00;85.00
57242;DHT22;43095;53.302;5.786;2024-02-26T19:48:15;5.00;85.50
57242;DHT22;43095;53.302;5.786;2024-02-26T19:50:42;5.10;86.10
57242;DHT22;43095;53.302;5.786;2024-02-26T19:53:11;5.10;86.30
57242;DHT22;43095;53.302;5.786;2024-02-26T19:55:46;5.10;85.50
57242;DHT22;43095;53.302;5.786;2024-02-26T19:58:14;5.10;85.10
57242;DHT22;43095;53.302;5.786;2024-02-26T20:00:42;5.10;84.40
57242;DHT22;43095;53.302;5.786;2024-02-26T20:03:09;5.00;83.90
57242;DHT22;43095;53.302;5.786;2024-02-26T20:05:37;5.00;83.80
57242;DHT22;43095;53.302;5.786;2024-02-26T20:08:04;5.00;84.10
57242;DHT22;43095;53.302;5.786;2024-02-26T20:10:32;5.00;84.30
57242;DHT22;43095;53.302;5.786;2024-02-26T20:13:00;5.00;84.30
57242;DHT22;43095;53.302;5.786;2024-02-26T20:15:27;5.00;84.50
57242;DHT22;43095;53.302;5.786;2024-02-26T20:17:55;5.00;84.70
57242;DHT22;43095;53.302;5.786;2024-02-26T20:20:22;5.00;85.00
57242;DHT22;43095;53.302;5.786;2024-02-26T20:22:53;5.00;85.50
57242;DHT22;43095;53.302;5.786;2024-02-26T20:25:20;5.00;85.70
57242;DHT22;43095;53.302;5.786;2024-02-26T20:27:48;5.00;85.80
57242;DHT22;43095;53.302;5.786;2024-02-26T20:30:15;5.00;86.20
57242;DHT22;43095;53.302;5.786;2024-02-26T20:32:44;5.00;86.60
57242;DHT22;43095;53.302;5.786;2024-02-26T20:35:11;5.00;87.20
57242;DHT22;43095;53.302;5.786;2024-02-26T20:37:38;5.00;88.00
57242;DHT22;43095;53.302;5.786;2024-02-26T20:40:07;5.00;88.70
57242;DHT22;43095;53.302;5.786;2024-02-26T20:42:35;5.00;89.40
57242;DHT22;43095;53.302;5.786;2024-02-26T20:45:03;5.00;89.60
57242;DHT22;43095;53.302;5.786;2024-02-26T20:47:31;5.00;90.00
57242;DHT22;43095;53.302;5.786;2024-02-26T20:49:58;5.00;90.80
57242;DHT22;43095;53.302;5.786;2024-02-26T20:52:26;5.00;91.00
57242;DHT22;43095;53.302;5.786;2024-02-26T20:54:55;5.00;91.70
57242;DHT22;43095;53.302;5.786;2024-02-26T20:57:24;5.00;91.70
57242;DHT22;43095;53.302;5.786;2024-02-26T20:59:51;5.00;91.60
57242;DHT22;43095;53.302;5.786;2024-02-26T21:02:19;5.00;91.30
57242;DHT22;43095;53.302;5.786;2024-02-26T21:04:55;5.00;91.00
57242;DHT22;43095;53.302;5.786;2024-02-26T21:07:24;5.00;91.10
57242;DHT22;43095;53.302;5.786;2024-02-26T21:09:51;5.00;91.00
57242;DHT22;43095;53.302;5.786;2024-02-26T21:12:21;5.00;90.40
57242;DHT22;43095;53.302;5.786;2024-02-26T21:14:48;5.00;89.80
57242;DHT22;43095;53.302;5.786;2024-02-26T21:17:15;5.00;88.60
57242;DHT22;43095;53.302;5.786;2024-02-26T21:19:42;5.00;87.70
57242;DHT22;43095;53.302;5.786;2024-02-26T21:22:10;5.00;87.50
57242;DHT22;43095;53.302;5.786;2024-02-26T21:24:37;5.00;87.60